N14EF / N14EF 7700 Squawk Report (17th of November, 2018)

Time Lat Lon Altitude Heading Speed Vertical Rate
2018-11-17 14:12:21 GMT 51.810406 -1.328278 500 10 131 -1152
2018-11-17 14:11:50 GMT 51.791039 -1.335831 1,100 22 143 -1280
2018-11-17 14:11:42 GMT 51.786106 -1.340637 1,300 34 137 -1088
2018-11-17 14:11:31 GMT 51.780670 -1.347384 1,500 54 129 0
2018-11-17 14:11:24 GMT 51.777493 -1.352692 1,500 47 129 -640
2018-11-17 14:11:12 GMT 51.773438 -1.360969 1,600 54 130 -64
2018-11-17 14:11:00 GMT 51.769135 -1.371287 1,600 57 138 -192
2018-11-17 14:10:56 GMT 51.767857 -1.374359 1,600 55 148 0
2018-11-17 14:10:52 GMT 51.766136 -1.378479 1,600 68 147 -192
2018-11-17 14:10:41 GMT 51.764099 -1.389474 3,200 86 148 -192
2018-11-17 14:10:36 GMT 51.763870 -1.395264 3,200 86 148 -192
2018-11-17 14:10:30 GMT 51.763668 -1.401672 1,700 86 146 -448
2018-11-17 14:10:20 GMT 51.763367 -1.412189 1,800 93 145 -896
2018-11-17 14:10:15 GMT 51.763577 -1.419067 1,800 93 145 -896
2018-11-17 14:10:10 GMT 51.763805 -1.423798 1,900 94 143 -768
2018-11-17 14:10:06 GMT 51.764191 -1.429113 2,000 98 141 -704
2018-11-17 14:10:01 GMT 51.764557 -1.433196 2,000 98 141 -768
2018-11-17 14:09:58 GMT 51.764923 -1.437353 2,100 96 140 -896
2018-11-17 14:09:52 GMT 51.765198 -1.442772 2,100 92 138 -640
2018-11-17 14:09:49 GMT 51.765297 -1.445923 2,200 90 138 -832
2018-11-17 14:09:46 GMT 51.765289 -1.449082 2,200 90 139 -896
2018-11-17 14:09:41 GMT 51.765110 -1.454163 2,300 83 142 -1152
2018-11-17 14:09:35 GMT 51.764191 -1.460736 2,400 63 150 -896
2018-11-17 14:09:30 GMT 51.762783 -1.464996 2,600 20 183 -832
2018-11-17 14:09:26 GMT 51.760391 -1.469421 2,600 38 168 -832
2018-11-17 14:09:17 GMT 51.754124 -1.474380 2,700 13 189 -1152
2018-11-17 14:09:14 GMT 51.751984 -1.474915 2,700 0 197 -2368
2018-11-17 14:09:07 GMT 51.745049 -1.473694 3,100 336 199 -3008
2018-11-17 14:08:59 GMT 51.739014 -1.466601 3,300 330 199 -2880
2018-11-17 14:08:55 GMT 51.737457 -1.462708 3,500 298 206 -768
2018-11-17 14:08:51 GMT 51.736111 -1.456833 3,500 283 209 -1216
2018-11-17 14:08:48 GMT 51.734619 -1.446686 3,600 283 210 -1088
2018-11-17 14:08:41 GMT 51.733875 -1.441040 3,700 281 216 -896
2018-11-17 14:08:38 GMT 51.732925 -1.433790 3,800 281 215 -832
2018-11-17 14:08:33 GMT 51.732338 -1.428299 4,700 275 210 -2496
2018-11-17 14:08:30 GMT 51.731918 -1.424066 4,700 277 215 -2112
2018-11-17 14:08:27 GMT 51.731461 -1.418573 4,000 278 217 -1664
2018-11-17 14:08:24 GMT 51.730637 -1.408254 4,100 220 202 -1344
2018-11-17 14:08:20 GMT 51.730637 -1.408254 4,300 276 215 -2048
2018-11-17 14:08:16 GMT 51.729767 -1.394744 4,500 276 214 -2112
2018-11-17 14:08:13 GMT 51.729767 -1.394744 4,500 276 213 -2368
2018-11-17 14:08:10 GMT 51.729538 -1.391552 4,700 275 209 -2048
2018-11-17 14:08:06 GMT 51.729218 -1.384945 4,800 275 209 -1920
2018-11-17 14:08:03 GMT 51.729034 -1.380566 4,800 275 209 -1664
2018-11-17 14:08:00 GMT 51.728848 -1.375809 4,900 272 212 -1344
2018-11-17 14:07:57 GMT 51.728706 -1.370697 5,000 272 212 -1344
2018-11-17 14:07:53 GMT 51.728577 -1.363344 5,100 264 209 -1984
2018-11-17 14:07:50 GMT 51.728485 -1.359484 5,200 270 212 -2112
2018-11-17 14:07:47 GMT 51.728485 -1.355401 5,400 259 207 -1856
2018-11-17 14:07:44 GMT 51.729218 -1.346970 5,400 257 207 -1728
2018-11-17 14:07:38 GMT 51.730499 -1.341371 5,800 252 206 -1536
2018-11-17 14:07:35 GMT 51.732147 -1.336546 5,600 236 203 -1216
2018-11-17 14:07:32 GMT 51.733749 -1.333132 5,700 222 201 -1280
2018-11-17 14:07:27 GMT 51.736588 -1.328752 5,800 222 201 -1280
2018-11-17 14:07:24 GMT 51.738903 -1.326141 5,800 212 199 -1472
2018-11-17 14:07:21 GMT 51.741230 -1.324234 5,900 206 199 -1536
2018-11-17 14:07:18 GMT 51.744553 -1.322368 6,000 194 194 -2368
2018-11-17 14:07:14 GMT 51.747711 -1.321403 6,300 155 171 -2240
2018-11-17 14:07:11 GMT 51.750633 -1.321564 6,400 163 174 -2432
2018-11-17 14:07:08 GMT 51.752075 -1.322098 6,500 154 171 -2240
2018-11-17 14:07:05 GMT 51.754532 -1.324001 6,700 130 165 -1792
2018-11-17 14:07:02 GMT 51.756271 -1.326154 6,600 137 167 -1536
2018-11-17 14:06:59 GMT 51.757851 -1.328964 6,700 131 165 -1664
2018-11-17 14:06:56 GMT 51.759659 -1.332092 6,800 137 167 -2048
2018-11-17 14:06:53 GMT 51.761719 -1.334765 6,900 143 168 -1920
2018-11-17 14:06:50 GMT 51.763760 -1.336823 7,000 152 173 -1408
2018-11-17 14:06:47 GMT 51.765530 -1.338196 7,000 156 175 -1088
2018-11-17 14:06:44 GMT 51.768322 -1.339951 7,100 161 181 -832
2018-11-17 14:06:41 GMT 51.773895 -1.342559 7,200 163 188 -960
2018-11-17 14:06:38 GMT 51.776283 -1.343536 7,300 165 190 -1472
2018-11-17 14:06:34 GMT 51.776283 -1.343536 7,300 165 190 -1408
2018-11-17 14:06:31 GMT 51.779205 -1.344786 7,400 165 189 -1344
2018-11-17 14:06:28 GMT 51.784698 -1.347087 7,500 164 188 -1344
2018-11-17 14:06:24 GMT 51.784698 -1.347087 7,500 165 189 -1152
2018-11-17 14:06:21 GMT 51.787445 -1.348201 7,700 165 188 -1408
2018-11-17 14:06:18 GMT 51.789642 -1.349182 7,700 165 188 -1408
2018-11-17 14:06:15 GMT 51.791878 -1.350098 7,800 165 188 -1280
2018-11-17 14:06:12 GMT 51.795456 -1.351541 7,800 166 187 -1280
2018-11-17 14:06:09 GMT 51.797150 -1.352283 7,900 166 187 -1280
2018-11-17 14:06:06 GMT 51.800026 -1.353455 7,900 166 187 -1280
2018-11-17 14:06:02 GMT 51.803097 -1.354752 8,000 166 186 -1344
2018-11-17 14:05:59 GMT 51.806305 -1.356069 8,000 166 186 -1344
2018-11-17 14:05:56 GMT 51.808498 -1.357040 8,100 166 186 -1344
2018-11-17 14:05:53 GMT 51.810360 -1.357803 8,200 166 186 -1344
2018-11-17 14:05:50 GMT 51.813583 -1.359113 8,300 165 187 -1408
2018-11-17 14:05:44 GMT 51.818832 -1.361313 8,400 164 187 -1408
2018-11-17 14:05:41 GMT 51.820679 -1.362156 8,400 164 188 -1344
2018-11-17 14:05:38 GMT 51.824112 -1.363567 8,500 165 189 -1280
2018-11-17 14:05:34 GMT 51.826511 -1.364670 8,600 165 189 -1344
2018-11-17 14:05:31 GMT 51.829742 -1.366016 8,700 165 189 -1408
2018-11-17 14:05:28 GMT 51.831635 -1.366882 8,800 165 189 -1344
2018-11-17 14:05:25 GMT 51.834007 -1.367950 8,800 165 189 -1152
2018-11-17 14:05:22 GMT 51.836609 -1.369060 8,900 165 189 -1664
2018-11-17 14:05:19 GMT 51.839500 -1.370392 8,900 163 188 -1408
2018-11-17 14:05:16 GMT 51.841873 -1.371460 9,000 163 188 -1024
2018-11-17 14:05:13 GMT 51.845089 -1.372910 9,100 163 188 -896
2018-11-17 14:05:07 GMT 51.849464 -1.374969 9,200 163 188 -1024
2018-11-17 14:05:04 GMT 51.851837 -1.376038 9,200 163 188 -1024
2018-11-17 14:05:01 GMT 51.854862 -1.377487 9,200 163 187 -1024
2018-11-17 14:04:58 GMT 51.857025 -1.378561 9,300 163 188 -896
2018-11-17 14:04:55 GMT 51.859222 -1.379601 9,400 163 188 -896
2018-11-17 14:04:52 GMT 51.862080 -1.380997 9,400 162 187 -1024
2018-11-17 14:04:49 GMT 51.864407 -1.382141 9,400 163 188 -896
2018-11-17 14:04:46 GMT 51.867279 -1.383535 9,600 163 188 -896
2018-11-17 14:04:43 GMT 51.869480 -1.384583 9,800 164 185 -64
2018-11-17 14:04:40 GMT 51.872505 -1.386032 9,600 163 188 -1088
2018-11-17 14:04:36 GMT 51.874924 -1.387172 9,900 164 185 0
2018-11-17 14:04:33 GMT 51.877766 -1.388474 9,700 163 188 -896
2018-11-17 14:04:30 GMT 51.879959 -1.389548 10,000 163 188 -1088
2018-11-17 14:04:27 GMT 51.882839 -1.390839 9,800 163 188 -768
2018-11-17 14:04:24 GMT 51.885029 -1.391830 9,900 164 188 -896
2018-11-17 14:04:21 GMT 51.887604 -1.393037 10,000 164 188 -1088
2018-11-17 14:04:18 GMT 51.889618 -1.393927 10,000 165 186 -896
2018-11-17 14:04:15 GMT 51.893005 -1.395338 10,000 164 185 0
2018-11-17 14:04:12 GMT 51.895180 -1.396284 10,000 164 185 -64
2018-11-17 14:04:09 GMT 51.897995 -1.397476 10,000 164 185 0
2018-11-17 14:04:03 GMT 51.902527 -1.399460 10,000 164 185 0
2018-11-17 14:04:00 GMT 51.905869 -1.400909 10,000 164 185 0
2018-11-17 14:03:57 GMT 51.907883 -1.401825 10,000 164 185 -192
2018-11-17 14:03:53 GMT 51.911053 -1.403190 10,000 164 185 128
2018-11-17 14:03:50 GMT 51.913380 -1.404288 10,000 164 185 0
2018-11-17 14:03:47 GMT 51.915848 -1.405411 10,000 163 187 -64
2018-11-17 14:03:44 GMT 51.919006 -1.406937 10,000 163 184 0
2018-11-17 14:03:41 GMT 51.921341 -1.408005 10,000 163 184 64
2018-11-17 14:03:38 GMT 51.923481 -1.408997 10,000 164 185 128
2018-11-17 14:03:33 GMT 51.927486 -1.410958 10,000 163 187 0
2018-11-17 14:03:30 GMT 51.930138 -1.412214 10,000 163 187 0
2018-11-17 14:03:27 GMT 51.933014 -1.413574 10,000 163 187 -64
2018-11-17 14:03:24 GMT 51.937180 -1.415558 10,000 163 187 -64
2018-11-17 14:03:21 GMT 51.937180 -1.415558 10,000 163 187 0
2018-11-17 14:03:18 GMT 51.940380 -1.417079 10,000 163 187 0
2018-11-17 14:03:15 GMT 51.942261 -1.417923 10,000 163 187 0
2018-11-17 14:03:12 GMT 51.944756 -1.419041 10,000 163 187 0
2018-11-17 14:03:09 GMT 51.948013 -1.420532 10,000 163 187 0
2018-11-17 14:03:06 GMT 51.950062 -1.421395 10,000 163 187 0
2018-11-17 14:03:02 GMT 51.953415 -1.422965 10,000 163 187 0
2018-11-17 14:02:59 GMT 51.958282 -1.425171 10,000 163 187 -64
2018-11-17 14:02:56 GMT 51.960815 -1.426339 10,000 164 186 -128
2018-11-17 14:02:53 GMT 51.960815 -1.426339 10,000 163 187 0
2018-11-17 14:02:50 GMT 51.963657 -1.427673 10,000 163 187 0
2018-11-17 14:02:47 GMT 51.966354 -1.428850 10,000 163 187 0
2018-11-17 14:02:44 GMT 51.968731 -1.429949 10,000 164 186 -64
2018-11-17 14:02:41 GMT 51.974083 -1.432303 10,000 165 186 0
2018-11-17 14:02:38 GMT 51.974083 -1.432303 10,000 165 186 0
2018-11-17 14:02:35 GMT 51.975433 -1.432931 10,000 164 185 -64
2018-11-17 14:02:31 GMT 51.978790 -1.434402 10,000 165 186 0
2018-11-17 14:02:28 GMT 51.983997 -1.436698 10,000 165 186 64
2018-11-17 14:02:25 GMT 51.983997 -1.436698 10,000 165 186 64
2018-11-17 14:02:21 GMT 51.987350 -1.438110 10,000 165 186 64
2018-11-17 14:02:18 GMT 51.990875 -1.439743 10,000 165 186 0
2018-11-17 14:02:15 GMT 51.993076 -1.440700 10,000 165 186 0
2018-11-17 14:02:09 GMT 51.997917 -1.442819 10,000 164 186 -64
2018-11-17 14:02:06 GMT 51.999596 -1.443604 10,000 164 185 0
2018-11-17 14:02:03 GMT 52.002621 -1.445016 10,000 164 185 -64
2018-11-17 14:02:00 GMT 52.007767 -1.447296 10,000 164 185 64
2018-11-17 14:01:57 GMT 52.007767 -1.447296 10,000 164 185 64
2018-11-17 14:01:54 GMT 52.009781 -1.448212 10,000 164 186 0
2018-11-17 14:01:50 GMT 52.012444 -1.449489 10,000 164 185 -128
2018-11-17 14:01:47 GMT 52.015469 -1.450823 10,000 164 185 -128
2018-11-17 14:01:44 GMT 52.017796 -1.451843 10,000 164 185 -64
2018-11-17 14:01:40 GMT 52.021801 -1.453648 10,000 164 185 64
2018-11-17 14:01:37 GMT 52.023651 -1.454391 10,000 164 185 128
2018-11-17 14:01:34 GMT 52.025803 -1.455375 10,000 164 185 -64
2018-11-17 14:01:30 GMT 52.029144 -1.456833 10,000 164 185 0
2018-11-17 14:01:27 GMT 52.035828 -1.459808 10,000 164 185 64
2018-11-17 14:01:23 GMT 52.035828 -1.459808 10,000 164 185 -64
2018-11-17 14:01:19 GMT 52.039215 -1.461258 10,000 164 185 -64
2018-11-17 14:01:15 GMT 52.041725 -1.462359 10,000 164 185 -64
2018-11-17 14:01:12 GMT 52.044388 -1.463547 10,000 164 185 -64
2018-11-17 14:01:08 GMT 52.048737 -1.465454 10,000 164 185 -128
2018-11-17 14:01:04 GMT 52.050941 -1.466361 10,000 164 185 -64
2018-11-17 14:01:01 GMT 52.052944 -1.467224 10,000 164 184 64
2018-11-17 14:00:58 GMT 52.056248 -1.468637 10,000 164 184 64
2018-11-17 14:00:55 GMT 52.061279 -1.470795 10,000 164 184 0
2018-11-17 14:00:52 GMT 52.061279 -1.470795 10,000 164 184 0
2018-11-17 14:00:49 GMT 52.063614 -1.471786 10,000 164 185 -64
2018-11-17 14:00:44 GMT 52.067276 -1.473389 10,000 164 185 0
2018-11-17 14:00:41 GMT 52.069794 -1.474444 10,000 164 184 0
2018-11-17 14:00:38 GMT 52.072449 -1.475621 10,000 164 184 -192
2018-11-17 14:00:34 GMT 52.078918 -1.478446 10,000 164 184 128
2018-11-17 14:00:31 GMT 52.083115 -1.480331 10,000 163 184 0
2018-11-17 14:00:25 GMT 52.083115 -1.480331 10,000 163 184 0
2018-11-17 14:00:22 GMT 52.085575 -1.481428 10,000 163 184 64
2018-11-17 14:00:19 GMT 52.088379 -1.482697 10,000 163 184 0
2018-11-17 14:00:15 GMT 52.091442 -1.484096 10,000 163 184 0
2018-11-17 14:00:12 GMT 52.094421 -1.485509 10,000 163 184 0
2018-11-17 14:00:09 GMT 52.095726 -1.486136 10,000 163 184 0
2018-11-17 14:00:05 GMT 52.100380 -1.488255 10,000 163 184 64
2018-11-17 14:00:02 GMT 52.102009 -1.489040 10,000 163 184 -128
2018-11-17 13:59:59 GMT 52.104355 -1.490097 10,000 163 183 128
2018-11-17 13:59:56 GMT 52.106480 -1.491080 10,000 164 184 0
2018-11-17 13:59:53 GMT 52.110157 -1.492650 10,000 164 184 -192
2018-11-17 13:59:50 GMT 52.114437 -1.494533 10,000 164 184 192
2018-11-17 13:59:47 GMT 52.118114 -1.496102 10,000 164 185 128
2018-11-17 13:59:43 GMT 52.118114 -1.496102 10,000 164 185 64
2018-11-17 13:59:40 GMT 52.119793 -1.496809 10,000 164 185 -64
2018-11-17 13:59:37 GMT 52.121979 -1.497750 10,000 164 185 128
2018-11-17 13:59:34 GMT 52.125053 -1.499084 10,000 164 185 128
2018-11-17 13:59:31 GMT 52.127563 -1.500168 10,000 164 185 -192
2018-11-17 13:59:28 GMT 52.130081 -1.501203 10,000 164 185 0
2018-11-17 13:59:25 GMT 52.132595 -1.502302 10,000 164 185 0
2018-11-17 13:59:22 GMT 52.135071 -1.503372 10,000 164 184 64
2018-11-17 13:59:19 GMT 52.137901 -1.504656 10,000 164 184 -128
2018-11-17 13:59:16 GMT 52.139904 -1.505519 10,000 164 184 -64
2018-11-17 13:59:13 GMT 52.142555 -1.506696 10,000 164 184 64
2018-11-17 13:59:10 GMT 52.145050 -1.507874 10,000 164 184 64
2018-11-17 13:59:06 GMT 52.148529 -1.509399 10,000 164 184 0
2018-11-17 13:59:02 GMT 52.151550 -1.510773 10,000 163 184 0
2018-11-17 13:58:59 GMT 52.154335 -1.512033 10,000 163 184 0
2018-11-17 13:58:56 GMT 52.156494 -1.512985 10,000 163 184 128
2018-11-17 13:58:53 GMT 52.158463 -1.513901 10,000 163 184 -64
2018-11-17 13:58:50 GMT 52.161316 -1.515172 10,000 164 184 64
2018-11-17 13:58:47 GMT 52.164108 -1.516427 10,000 163 184 128
2018-11-17 13:58:44 GMT 52.166611 -1.517563 10,000 163 184 0
2018-11-17 13:58:40 GMT 52.171875 -1.520004 10,000 163 184 64
2018-11-17 13:58:37 GMT 52.171875 -1.520004 10,000 164 184 0
2018-11-17 13:58:33 GMT 52.175701 -1.521685 10,000 164 184 -64
2018-11-17 13:58:30 GMT 52.177872 -1.522675 10,000 164 184 -128
2018-11-17 13:58:27 GMT 52.180023 -1.523666 10,000 164 184 -64
2018-11-17 13:58:24 GMT 52.182171 -1.524588 10,000 164 183 0
2018-11-17 13:58:21 GMT 52.184826 -1.525844 10,000 164 183 0
2018-11-17 13:58:18 GMT 52.187805 -1.527100 10,000 165 183 0
2018-11-17 13:58:15 GMT 52.189957 -1.528091 10,000 165 183 128
2018-11-17 13:58:12 GMT 52.192291 -1.529160 10,000 165 183 0
2018-11-17 13:58:09 GMT 52.195587 -1.530609 10,000 165 183 0
2018-11-17 13:58:06 GMT 52.200027 -1.532593 10,000 165 183 -64
2018-11-17 13:58:03 GMT 52.203167 -1.534005 10,000 165 183 64
2018-11-17 13:58:00 GMT 52.203167 -1.534005 10,000 165 183 128
2018-11-17 13:57:57 GMT 52.204971 -1.534805 10,000 164 183 64
2018-11-17 13:57:54 GMT 52.206940 -1.535721 10,000 164 183 64
2018-11-17 13:57:51 GMT 52.209778 -1.536987 10,000 164 184 0
2018-11-17 13:57:48 GMT 52.211781 -1.537851 10,000 164 184 64
2018-11-17 13:57:45 GMT 52.214573 -1.539106 10,000 164 184 -128
2018-11-17 13:57:42 GMT 52.217056 -1.540222 10,000 164 184 64
2018-11-17 13:57:39 GMT 52.220207 -1.541617 10,000 164 184 64
2018-11-17 13:57:36 GMT 52.221882 -1.542324 10,000 164 184 64
2018-11-17 13:57:33 GMT 52.224060 -1.543274 10,000 164 184 0
2018-11-17 13:57:29 GMT 52.227840 -1.544992 10,000 164 184 0
2018-11-17 13:57:26 GMT 52.230679 -1.546169 10,000 164 183 64
2018-11-17 13:57:20 GMT 52.235008 -1.548052 10,000 164 183 0
2018-11-17 13:57:16 GMT 52.239166 -1.549911 10,000 164 183 64
2018-11-17 13:57:10 GMT 52.243790 -1.551971 10,000 164 184 0
2018-11-17 13:57:07 GMT 52.245621 -1.552734 10,000 164 183 -64
2018-11-17 13:57:04 GMT 52.248089 -1.553859 10,000 165 183 -64
2018-11-17 13:57:01 GMT 52.250931 -1.555176 10,000 165 183 0
2018-11-17 13:56:58 GMT 52.256050 -1.557390 10,000 165 183 0
2018-11-17 13:56:55 GMT 52.256050 -1.557390 10,000 165 183 0
2018-11-17 13:56:52 GMT 52.258163 -1.558380 10,000 164 183 0
2018-11-17 13:56:49 GMT 52.260986 -1.559588 10,000 164 183 64
2018-11-17 13:56:46 GMT 52.263500 -1.560686 10,000 164 183 64
2018-11-17 13:56:43 GMT 52.265781 -1.561707 10,000 164 184 64
2018-11-17 13:56:38 GMT 52.269459 -1.563276 10,000 164 184 -64
2018-11-17 13:56:35 GMT 52.272438 -1.564532 10,000 164 184 0
2018-11-17 13:56:32 GMT 52.274597 -1.565475 10,000 164 183 0
2018-11-17 13:56:29 GMT 52.277618 -1.566696 10,000 164 183 0
2018-11-17 13:56:26 GMT 52.280090 -1.567841 10,000 164 183 64
2018-11-17 13:56:23 GMT 52.281933 -1.568612 10,000 164 184 0
2018-11-17 13:56:20 GMT 52.284393 -1.569748 10,000 164 184 0
2018-11-17 13:56:17 GMT 52.287369 -1.571045 10,000 164 184 0
2018-11-17 13:56:14 GMT 52.289520 -1.572065 10,000 163 184 -64
2018-11-17 13:56:11 GMT 52.293686 -1.573944 10,000 163 183 -128
2018-11-17 13:56:07 GMT 52.294643 -1.574419 10,000 164 182 0
2018-11-17 13:56:04 GMT 52.298126 -1.576004 10,000 164 182 64
2018-11-17 13:55:58 GMT 52.302555 -1.578108 10,000 164 182 0
2018-11-17 13:55:55 GMT 52.304352 -1.578903 10,000 164 182 0
2018-11-17 13:55:52 GMT 52.307968 -1.580582 10,000 163 183 0
2018-11-17 13:55:49 GMT 52.310806 -1.581879 10,000 163 183 0
2018-11-17 13:55:46 GMT 52.311958 -1.582424 10,000 165 183 -64
2018-11-17 13:55:43 GMT 52.314423 -1.583481 10,000 165 183 -64
2018-11-17 13:55:40 GMT 52.317268 -1.584699 10,000 166 183 0
2018-11-17 13:55:37 GMT 52.319595 -1.585563 10,000 167 183 64
2018-11-17 13:55:34 GMT 52.323273 -1.586975 10,000 168 183 128
2018-11-17 13:55:31 GMT 52.326645 -1.588058 10,000 168 184 128
2018-11-17 13:55:28 GMT 52.327011 -1.588135 10,000 172 187 0
2018-11-17 13:55:25 GMT 52.329712 -1.588898 10,000 171 186 0
2018-11-17 13:55:21 GMT 52.333191 -1.589661 10,000 172 187 0
2018-11-17 13:55:18 GMT 52.335796 -1.590193 10,000 183 192 -128
2018-11-17 13:55:15 GMT 52.338261 -1.590506 10,000 176 189 64
2018-11-17 13:55:12 GMT 52.340729 -1.590663 10,000 177 190 64
2018-11-17 13:55:09 GMT 52.343243 -1.590585 10,000 181 191 0
2018-11-17 13:55:06 GMT 52.346786 -1.590424 10,000 183 192 -128
2018-11-17 13:55:03 GMT 52.348572 -1.590347 10,000 183 191 -64
2018-11-17 13:55:00 GMT 52.351994 -1.590114 10,000 183 191 64
2018-11-17 13:54:56 GMT 52.359444 -1.589643 10,000 183 190 0
2018-11-17 13:54:53 GMT 52.359444 -1.589643 10,000 183 190 0
2018-11-17 13:54:50 GMT 52.360336 -1.589661 10,000 183 191 64
2018-11-17 13:54:47 GMT 52.363037 -1.589432 10,000 183 191 64
2018-11-17 13:54:43 GMT 52.366928 -1.589203 10,000 183 191 64
2018-11-17 13:54:39 GMT 52.370499 -1.588974 10,000 183 192 0
2018-11-17 13:54:36 GMT 52.373550 -1.588780 10,000 183 192 -64
2018-11-17 13:54:30 GMT 52.378574 -1.588545 10,000 183 191 0
2018-11-17 13:54:27 GMT 52.380341 -1.588440 10,000 183 191 64
2018-11-17 13:54:24 GMT 52.383419 -1.588231 10,000 183 192 64
2018-11-17 13:54:20 GMT 52.387699 -1.587995 10,000 183 191 -64
2018-11-17 13:54:17 GMT 52.390213 -1.587917 10,000 183 191 -64
2018-11-17 13:54:14 GMT 52.392151 -1.587753 10,000 183 191 -64
2018-11-17 13:54:11 GMT 52.397942 -1.587446 10,000 183 191 -64
2018-11-17 13:54:08 GMT 52.397942 -1.587446 10,000 183 191 0
2018-11-17 13:54:05 GMT 52.400253 -1.587372 10,000 183 192 -64
2018-11-17 13:54:02 GMT 52.402596 -1.587211 10,000 183 191 0
2018-11-17 13:53:59 GMT 52.405437 -1.587054 10,000 183 191 64
2018-11-17 13:53:56 GMT 52.407990 -1.586914 10,000 183 191 64
2018-11-17 13:53:53 GMT 52.410507 -1.586761 10,000 183 191 -64
2018-11-17 13:53:50 GMT 52.417446 -1.586347 10,000 183 191 -64
2018-11-17 13:53:46 GMT 52.417446 -1.586347 10,000 183 191 -64
2018-11-17 13:53:43 GMT 52.419617 -1.586304 10,000 183 191 0
2018-11-17 13:53:39 GMT 52.422615 -1.586112 10,000 183 191 64
2018-11-17 13:53:36 GMT 52.425827 -1.585955 10,000 183 191 0
2018-11-17 13:53:33 GMT 52.428177 -1.585846 10,000 183 191 0
2018-11-17 13:53:30 GMT 52.433533 -1.585541 10,000 183 191 0
2018-11-17 13:53:24 GMT 52.436207 -1.585484 10,000 183 192 -64
2018-11-17 13:53:21 GMT 52.438908 -1.585327 10,000 183 191 0
2018-11-17 13:53:18 GMT 52.441750 -1.585170 10,000 183 192 0
2018-11-17 13:53:15 GMT 52.447845 -1.584856 10,000 183 192 128
2018-11-17 13:53:11 GMT 52.447845 -1.584856 10,000 183 192 128
2018-11-17 13:53:08 GMT 52.451981 -1.584625 10,000 183 193 0
2018-11-17 13:53:05 GMT 52.453079 -1.584625 10,000 183 192 -64
2018-11-17 13:53:02 GMT 52.455780 -1.584473 10,000 183 193 -64
2018-11-17 13:52:59 GMT 52.458462 -1.584307 10,000 183 192 -64
2018-11-17 13:52:56 GMT 52.461136 -1.584167 10,000 183 192 -64
2018-11-17 13:52:53 GMT 52.464386 -1.584015 10,000 183 192 -64
2018-11-17 13:52:50 GMT 52.467072 -1.583836 10,000 183 191 -128
2018-11-17 13:52:47 GMT 52.469212 -1.583758 10,000 183 191 0
2018-11-17 13:52:44 GMT 52.471725 -1.583601 10,000 183 191 0
2018-11-17 13:52:41 GMT 52.474915 -1.583481 10,000 183 192 0
2018-11-17 13:52:37 GMT 52.478119 -1.583328 10,000 183 192 0
2018-11-17 13:52:34 GMT 52.480637 -1.583176 10,000 183 192 0
2018-11-17 13:52:31 GMT 52.483521 -1.583099 10,000 183 192 0
2018-11-17 13:52:27 GMT 52.487091 -1.582870 10,000 183 192 0
2018-11-17 13:52:24 GMT 52.489601 -1.582816 10,000 183 192 0
2018-11-17 13:52:21 GMT 52.492489 -1.582659 10,000 183 192 -64
2018-11-17 13:52:18 GMT 52.494633 -1.582581 10,000 181 191 -64
2018-11-17 13:52:15 GMT 52.497665 -1.582413 10,000 181 191 -64
2018-11-17 13:52:12 GMT 52.501057 -1.582267 10,000 181 191 0
2018-11-17 13:52:09 GMT 52.503197 -1.582188 10,000 181 190 -64
2018-11-17 13:52:05 GMT 52.506180 -1.582108 10,000 181 190 -64
2018-11-17 13:52:02 GMT 52.511902 -1.581874 10,000 181 190 64
2018-11-17 13:51:59 GMT 52.511902 -1.581874 10,000 181 190 64
2018-11-17 13:51:56 GMT 52.515114 -1.581796 10,000 181 191 64
2018-11-17 13:51:52 GMT 52.518280 -1.581639 10,000 181 191 0
2018-11-17 13:51:48 GMT 52.521492 -1.581482 10,000 181 191 0
2018-11-17 13:51:45 GMT 52.523849 -1.581421 10,000 181 191 0
2018-11-17 13:51:42 GMT 52.526505 -1.581345 10,000 181 191 0
2018-11-17 13:51:38 GMT 52.530075 -1.581192 10,000 181 191 -64
2018-11-17 13:51:35 GMT 52.533646 -1.581039 10,000 181 192 0
2018-11-17 13:51:32 GMT 52.535431 -1.581039 10,000 181 192 0
2018-11-17 13:51:29 GMT 52.540833 -1.580811 10,000 181 192 -64
2018-11-17 13:51:26 GMT 52.543854 -1.580658 10,000 181 192 -64
2018-11-17 13:51:23 GMT 52.546909 -1.580540 10,000 181 192 -64
2018-11-17 13:51:20 GMT 52.546909 -1.580540 10,000 181 192 -64
2018-11-17 13:51:17 GMT 52.549423 -1.580462 10,000 181 191 -64
2018-11-17 13:51:14 GMT 52.551937 -1.580383 10,000 181 191 0
2018-11-17 13:51:11 GMT 52.555149 -1.580226 10,000 181 191 0
2018-11-17 13:51:08 GMT 52.556396 -1.580200 10,000 181 191 0
2018-11-17 13:51:05 GMT 52.559620 -1.580069 10,000 181 191 0
2018-11-17 13:50:59 GMT 52.564598 -1.579912 10,000 181 191 64
2018-11-17 13:50:56 GMT 52.568184 -1.579756 10,000 181 191 -64
2018-11-17 13:50:53 GMT 52.570496 -1.579666 10,000 181 191 -128
2018-11-17 13:50:49 GMT 52.573166 -1.579599 10,000 181 191 -128
2018-11-17 13:50:46 GMT 52.576538 -1.579437 10,000 181 191 64
2018-11-17 13:50:43 GMT 52.578659 -1.579363 10,000 181 191 128
2018-11-17 13:50:40 GMT 52.581871 -1.579285 10,000 183 191 64
2018-11-17 13:50:37 GMT 52.583687 -1.579206 10,000 181 191 0
2018-11-17 13:50:34 GMT 52.587433 -1.578979 10,000 181 191 0
2018-11-17 13:50:29 GMT 52.590958 -1.578827 10,000 181 190 64
2018-11-17 13:50:26 GMT 52.594345 -1.578735 10,000 181 190 64
2018-11-17 13:50:23 GMT 52.596497 -1.578598 10,000 183 190 -64
2018-11-17 13:50:20 GMT 52.598969 -1.578522 10,000 183 190 0
2018-11-17 13:50:17 GMT 52.601807 -1.578369 10,000 183 190 0
2018-11-17 13:50:14 GMT 52.603592 -1.578293 10,000 183 190 -64
2018-11-17 13:50:11 GMT 52.607529 -1.578064 10,000 183 190 -64
2018-11-17 13:50:08 GMT 52.610172 -1.577951 10,000 183 190 64
2018-11-17 13:50:05 GMT 52.612499 -1.577794 10,000 183 191 -128
2018-11-17 13:50:02 GMT 52.614807 -1.577682 10,000 183 190 64
2018-11-17 13:49:59 GMT 52.617111 -1.577558 10,000 183 190 64
2018-11-17 13:49:56 GMT 52.619949 -1.577323 10,000 183 190 -128
2018-11-17 13:49:53 GMT 52.623161 -1.577166 10,000 184 190 64
2018-11-17 13:49:50 GMT 52.625473 -1.576996 10,000 183 190 64
2018-11-17 13:49:47 GMT 52.628143 -1.576774 10,000 184 190 0
2018-11-17 13:49:44 GMT 52.630096 -1.576617 10,000 184 190 0
2018-11-17 13:49:41 GMT 52.635590 -1.576157 10,000 184 190 -128
2018-11-17 13:49:35 GMT 52.639526 -1.575775 10,000 184 190 0
2018-11-17 13:49:32 GMT 52.642155 -1.575518 10,000 184 190 0
2018-11-17 13:49:29 GMT 52.644104 -1.575241 10,000 184 190 0
2018-11-17 13:49:26 GMT 52.646576 -1.575012 10,000 184 190 0
2018-11-17 13:49:23 GMT 52.649418 -1.574655 10,000 184 190 0
2018-11-17 13:49:20 GMT 52.652256 -1.574341 10,000 184 190 128
2018-11-17 13:49:17 GMT 52.654400 -1.574105 10,000 184 190 128
2018-11-17 13:49:14 GMT 52.660450 -1.573242 10,000 189 193 0
2018-11-17 13:49:11 GMT 52.660450 -1.573242 10,000 192 193 -192
2018-11-17 13:49:08 GMT 52.663147 -1.572723 10,000 189 192 0
2018-11-17 13:49:05 GMT 52.665291 -1.572222 10,000 189 193 0
2018-11-17 13:49:02 GMT 52.668274 -1.571350 10,000 191 194 -64
2018-11-17 13:48:59 GMT 52.670597 -1.570653 10,000 192 193 -64
2018-11-17 13:48:56 GMT 52.673439 -1.569789 10,000 192 193 0
2018-11-17 13:48:53 GMT 52.675781 -1.569061 10,000 192 193 64
2018-11-17 13:48:50 GMT 52.678619 -1.568222 10,000 192 193 64
2018-11-17 13:48:47 GMT 52.681458 -1.567307 10,000 192 193 128
2018-11-17 13:48:44 GMT 52.683773 -1.566572 10,000 191 194 -64
2018-11-17 13:48:40 GMT 52.686798 -1.565630 10,000 192 193 -192
2018-11-17 13:48:37 GMT 52.690201 -1.564560 10,000 191 193 0
2018-11-17 13:48:34 GMT 52.692150 -1.563982 10,000 192 192 128
2018-11-17 13:48:30 GMT 52.696388 -1.562727 10,000 192 193 128
2018-11-17 13:48:27 GMT 52.698528 -1.562020 10,000 191 193 0
2018-11-17 13:48:24 GMT 52.701370 -1.561127 10,000 191 194 0
2018-11-17 13:48:19 GMT 52.705261 -1.559982 10,000 191 194 64
2018-11-17 13:48:16 GMT 52.708832 -1.558914 10,000 191 194 0
2018-11-17 13:48:13 GMT 52.711304 -1.558151 10,000 191 193 -64
2018-11-17 13:48:10 GMT 52.713612 -1.557390 10,000 191 193 0
2018-11-17 13:48:07 GMT 52.716293 -1.556625 10,000 191 193 0
2018-11-17 13:48:04 GMT 52.719151 -1.555743 10,000 191 193 0
2018-11-17 13:48:01 GMT 52.721619 -1.555036 10,000 190 192 0
2018-11-17 13:47:58 GMT 52.723938 -1.554337 10,000 191 193 -64
2018-11-17 13:47:52 GMT 52.729980 -1.552505 10,000 190 192 -128
2018-11-17 13:47:49 GMT 52.731720 -1.551971 10,000 190 192 -64
2018-11-17 13:47:46 GMT 52.734562 -1.551113 10,000 190 192 64
2018-11-17 13:47:42 GMT 52.738098 -1.550014 10,000 190 192 64
2018-11-17 13:47:39 GMT 52.740738 -1.549225 10,000 191 193 64
2018-11-17 13:47:36 GMT 52.743256 -1.548462 10,000 191 193 64
2018-11-17 13:47:33 GMT 52.749664 -1.546555 10,000 191 194 0
2018-11-17 13:47:30 GMT 52.749664 -1.546555 10,000 192 193 -64
2018-11-17 13:47:27 GMT 52.751785 -1.545855 10,000 192 193 0
2018-11-17 13:47:24 GMT 52.754105 -1.545181 10,000 192 193 -64
2018-11-17 13:47:21 GMT 52.756767 -1.544285 10,000 192 193 -64
2018-11-17 13:47:18 GMT 52.759048 -1.543579 10,000 192 193 64
2018-11-17 13:47:15 GMT 52.762074 -1.542637 10,000 192 193 64
2018-11-17 13:47:12 GMT 52.764404 -1.541901 10,000 192 193 0
2018-11-17 13:47:09 GMT 52.769714 -1.540222 10,000 192 193 0
2018-11-17 13:47:06 GMT 52.769714 -1.540222 10,000 192 193 0
2018-11-17 13:47:03 GMT 52.772049 -1.539536 10,000 192 193 -64
2018-11-17 13:47:00 GMT 52.778275 -1.537537 10,000 192 193 -128
2018-11-17 13:46:57 GMT 52.780045 -1.536987 10,000 192 193 -128
2018-11-17 13:46:54 GMT 52.783035 -1.536026 10,000 192 192 -64
2018-11-17 13:46:51 GMT 52.783035 -1.536026 10,000 192 192 -64
2018-11-17 13:46:48 GMT 52.785675 -1.535182 10,000 192 192 64
2018-11-17 13:46:45 GMT 52.788162 -1.534348 10,000 192 193 0
2018-11-17 13:46:42 GMT 52.791542 -1.533299 10,000 192 193 0
2018-11-17 13:46:39 GMT 52.793308 -1.532671 10,000 192 193 0
2018-11-17 13:46:36 GMT 52.798416 -1.530991 10,000 192 193 0
2018-11-17 13:46:33 GMT 52.798416 -1.530991 10,000 192 192 64
2018-11-17 13:46:30 GMT 52.801254 -1.530075 10,000 192 193 64
2018-11-17 13:46:27 GMT 52.803925 -1.529218 10,000 192 193 128
2018-11-17 13:46:24 GMT 52.806950 -1.528277 10,000 191 194 64
2018-11-17 13:46:21 GMT 52.812302 -1.526629 10,000 191 194 0
2018-11-17 13:46:18 GMT 52.812302 -1.526629 10,000 191 194 0
2018-11-17 13:46:15 GMT 52.814621 -1.525879 10,000 191 194 0
2018-11-17 13:46:12 GMT 52.816772 -1.525269 10,000 191 194 -64
2018-11-17 13:46:09 GMT 52.823196 -1.523254 10,000 191 194 -192
2018-11-17 13:46:05 GMT 52.823196 -1.523254 10,000 191 194 -192
2018-11-17 13:46:02 GMT 52.825665 -1.522548 10,000 191 194 -256
2018-11-17 13:45:59 GMT 52.828766 -1.521606 10,100 190 196 -640
2018-11-17 13:45:56 GMT 52.831436 -1.520743 10,000 192 196 -576
2018-11-17 13:45:53 GMT 52.834167 -1.519928 10,300 192 197 -960
2018-11-17 13:45:50 GMT 52.836884 -1.519095 10,100 192 197 -960
2018-11-17 13:45:45 GMT 52.841995 -1.517487 10,300 192 197 -1024
2018-11-17 13:45:42 GMT 52.844147 -1.516800 10,300 192 197 -1024
2018-11-17 13:45:38 GMT 52.847916 -1.515564 10,400 192 197 -960
2018-11-17 13:45:34 GMT 52.851379 -1.514511 10,500 192 197 -960
2018-11-17 13:45:30 GMT 52.854481 -1.513524 10,500 192 197 -960
2018-11-17 13:45:27 GMT 52.857365 -1.512660 10,500 192 197 -1024
2018-11-17 13:45:24 GMT 52.860626 -1.511688 10,600 190 196 -960
2018-11-17 13:45:21 GMT 52.862411 -1.511154 10,600 190 196 -896
2018-11-17 13:45:18 GMT 52.865341 -1.510239 10,700 190 196 -896
2018-11-17 13:45:15 GMT 52.868073 -1.509443 10,700 190 196 -896
2018-11-17 13:45:12 GMT 52.870789 -1.508636 10,800 190 196 -896
2018-11-17 13:45:09 GMT 52.874218 -1.507638 10,800 190 197 -896
2018-11-17 13:45:03 GMT 52.879715 -1.506042 10,900 190 197 -1024
2018-11-17 13:45:00 GMT 52.881866 -1.505432 10,900 190 196 -896
2018-11-17 13:44:56 GMT 52.884972 -1.504499 11,000 190 196 -896
2018-11-17 13:44:50 GMT 52.890198 -1.502914 11,100 190 197 -832
2018-11-17 13:44:47 GMT 52.893490 -1.501910 11,200 190 197 -960
2018-11-17 13:44:44 GMT 52.896240 -1.501083 11,200 192 197 -1088
2018-11-17 13:44:41 GMT 52.898758 -1.500320 11,200 192 197 -1024
2018-11-17 13:44:38 GMT 52.901688 -1.499405 11,300 192 197 -1088
2018-11-17 13:44:35 GMT 52.907867 -1.497498 11,400 192 197 -960
2018-11-17 13:44:31 GMT 52.907867 -1.497498 11,400 192 198 -896
2018-11-17 13:44:28 GMT 52.910202 -1.496730 11,500 192 198 -960
2018-11-17 13:44:25 GMT 52.912205 -1.496102 11,600 192 198 -896
2018-11-17 13:44:22 GMT 52.918625 -1.494064 11,600 192 198 -896
2018-11-17 13:44:19 GMT 52.921001 -1.493356 11,600 191 199 -896
2018-11-17 13:44:16 GMT 52.921001 -1.493356 11,700 191 200 -896
2018-11-17 13:44:13 GMT 52.923935 -1.492414 12,300 191 200 -896
2018-11-17 13:44:10 GMT 52.926868 -1.491473 11,700 191 200 -960
2018-11-17 13:44:07 GMT 52.929062 -1.490784 11,800 191 200 -1024
2018-11-17 13:44:04 GMT 52.932220 -1.489746 11,800 191 201 -1024
2018-11-17 13:44:01 GMT 52.934780 -1.488883 11,900 191 201 -1024
2018-11-17 13:43:58 GMT 52.937943 -1.487885 11,900 191 201 -1024
2018-11-17 13:43:55 GMT 52.941238 -1.486740 12,000 192 202 -960
2018-11-17 13:43:52 GMT 52.942928 -1.486136 12,000 192 202 -896
2018-11-17 13:43:49 GMT 52.946980 -1.484724 12,100 192 203 -896
2018-11-17 13:43:46 GMT 52.949249 -1.483917 12,100 192 204 -960
2018-11-17 13:43:43 GMT 52.951633 -1.482997 12,200 192 204 -960
2018-11-17 13:43:40 GMT 52.954468 -1.482010 12,200 193 205 -896
2018-11-17 13:43:37 GMT 52.957642 -1.480800 12,300 193 206 -960
2018-11-17 13:43:34 GMT 52.960464 -1.479721 12,300 194 207 -832
2018-11-17 13:43:31 GMT 52.962898 -1.478838 12,300 194 207 -832
2018-11-17 13:43:28 GMT 52.965179 -1.477975 12,400 194 207 -896
2018-11-17 13:43:24 GMT 52.968765 -1.476562 12,500 194 208 -1152
2018-11-17 13:43:21 GMT 52.972733 -1.475067 12,500 194 208 -768
2018-11-17 13:43:18 GMT 52.974537 -1.474365 12,500 193 209 -640
2018-11-17 13:43:15 GMT 52.977402 -1.473312 12,600 193 210 -1088
2018-11-17 13:43:12 GMT 52.980824 -1.472011 12,700 193 209 -1024
2018-11-17 13:43:09 GMT 52.983307 -1.471100 12,700 193 209 -832
2018-11-17 13:43:06 GMT 52.986740 -1.469803 12,800 193 210 -960
2018-11-17 13:43:03 GMT 52.988663 -1.469116 12,800 193 210 -960
2018-11-17 13:43:00 GMT 52.992695 -1.467773 12,900 193 206 -512
2018-11-17 13:42:57 GMT 52.997910 -1.465988 12,900 192 202 -64
2018-11-17 13:42:53 GMT 52.997910 -1.465988 12,900 191 199 -384
2018-11-17 13:42:50 GMT 53.003166 -1.464399 12,900 192 193 -832
2018-11-17 13:42:44 GMT 53.006611 -1.463300 13,000 191 182 -320
2018-11-17 13:42:41 GMT 53.008759 -1.462631 13,000 190 178 -384
2018-11-17 13:42:38 GMT 53.011871 -1.461731 13,000 191 171 128
2018-11-17 13:42:35 GMT 53.013596 -1.461182 13,000 190 169 448
2018-11-17 13:42:32 GMT 53.015457 -1.460632 13,000 191 166 896
2018-11-17 13:42:29 GMT 53.018482 -1.459691 12,900 191 163 1408
2018-11-17 13:42:23 GMT 53.022114 -1.458592 12,700 190 163 1984
2018-11-17 13:42:20 GMT 53.025700 -1.457493 12,600 188 165 1280
2018-11-17 13:42:17 GMT 53.026474 -1.457291 12,500 190 163 1728
2018-11-17 13:42:14 GMT 53.029037 -1.456604 12,500 190 163 1600
2018-11-17 13:42:11 GMT 53.031464 -1.455917 12,200 190 165 1664
2018-11-17 13:42:08 GMT 53.035721 -1.454773 12,200 190 165 1664
2018-11-17 13:42:02 GMT 53.038742 -1.453934 12,100 190 165 1600
2018-11-17 13:41:58 GMT 53.041489 -1.453247 12,000 190 165 1920
2018-11-17 13:41:55 GMT 53.043621 -1.452706 11,900 188 166 1600
2018-11-17 13:41:51 GMT 53.046089 -1.452079 11,800 188 165 1280
2018-11-17 13:41:48 GMT 53.048676 -1.451492 11,700 189 164 1792
2018-11-17 13:41:45 GMT 53.051468 -1.450806 11,700 188 166 2048
2018-11-17 13:41:41 GMT 53.054703 -1.450038 11,500 188 167 1408
2018-11-17 13:41:38 GMT 53.056686 -1.449509 11,500 188 166 1536
2018-11-17 13:41:35 GMT 53.058563 -1.449051 11,400 188 166 1856
2018-11-17 13:41:32 GMT 53.061172 -1.448441 11,300 188 168 1664
2018-11-17 13:41:29 GMT 53.065407 -1.447449 11,200 189 168 1408
2018-11-17 13:41:23 GMT 53.067596 -1.446899 11,100 188 168 2048
2018-11-17 13:41:20 GMT 53.071041 -1.446115 10,700 189 170 1472
2018-11-17 13:41:17 GMT 53.073395 -1.445541 10,900 189 170 1280
2018-11-17 13:41:14 GMT 53.074814 -1.445236 10,800 189 169 1472
2018-11-17 13:41:10 GMT 53.078770 -1.444231 10,700 190 172 1664
2018-11-17 13:41:07 GMT 53.080303 -1.443839 10,600 190 172 1664
2018-11-17 13:41:04 GMT 53.083008 -1.443176 10,600 190 172 1280
2018-11-17 13:41:01 GMT 53.085052 -1.442583 10,000 190 171 1600
2018-11-17 13:40:58 GMT 53.087612 -1.441877 10,300 190 173 1728
2018-11-17 13:40:55 GMT 53.091572 -1.440700 10,200 191 173 2112
2018-11-17 13:40:49 GMT 53.094456 -1.439837 10,100 194 175 1792
2018-11-17 13:40:46 GMT 53.096832 -1.438974 10,000 192 174 1984
2018-11-17 13:40:43 GMT 53.099396 -1.438032 9,900 196 177 1792
2018-11-17 13:40:40 GMT 53.104843 -1.435678 9,800 196 177 1920
2018-11-17 13:40:37 GMT 53.104843 -1.435678 9,700 201 180 1280
2018-11-17 13:40:34 GMT 53.106140 -1.435008 9,700 200 180 1472
2018-11-17 13:40:31 GMT 53.108551 -1.433637 9,600 201 182 1152
2018-11-17 13:40:28 GMT 53.111214 -1.431939 9,600 204 181 1216
2018-11-17 13:40:24 GMT 53.114288 -1.429515 9,400 213 186 1664
2018-11-17 13:40:21 GMT 53.116241 -1.427595 9,400 216 188 1408
2018-11-17 13:40:18 GMT 53.118713 -1.424299 9,000 223 189 896
2018-11-17 13:40:15 GMT 53.120819 -1.420689 9,200 228 191 1408
2018-11-17 13:40:12 GMT 53.122108 -1.418125 9,200 231 191 1664
2018-11-17 13:40:09 GMT 53.123428 -1.414961 9,100 236 194 1536
2018-11-17 13:40:06 GMT 53.126266 -1.405701 9,000 246 196 1088
2018-11-17 13:40:03 GMT 53.126266 -1.405701 9,000 247 196 1600
2018-11-17 13:40:00 GMT 53.127090 -1.402326 8,900 250 198 1664
2018-11-17 13:39:57 GMT 53.128067 -1.398010 8,800 250 198 1152
2018-11-17 13:39:54 GMT 53.130066 -1.389457 8,700 250 195 1536
2018-11-17 13:39:51 GMT 53.131393 -1.383807 8,600 250 195 1920
2018-11-17 13:39:47 GMT 53.131393 -1.383807 8,600 250 195 1664
2018-11-17 13:39:44 GMT 53.132584 -1.378706 8,500 249 192 1664
2018-11-17 13:39:41 GMT 53.133560 -1.374422 8,500 248 194 1408
2018-11-17 13:39:37 GMT 53.134644 -1.369995 8,400 249 192 1664
2018-11-17 13:39:34 GMT 53.135796 -1.365213 8,200 249 192 1216
2018-11-17 13:39:31 GMT 53.136585 -1.361901 8,200 248 192 1024
2018-11-17 13:39:28 GMT 53.138588 -1.353742 8,000 248 188 1472
2018-11-17 13:39:25 GMT 53.138588 -1.353742 8,100 247 188 1792
2018-11-17 13:39:22 GMT 53.139908 -1.348572 8,000 247 189 1600
2018-11-17 13:39:18 GMT 53.141102 -1.344048 7,900 246 183 1216
2018-11-17 13:39:12 GMT 53.142963 -1.336939 7,800 247 182 1408
2018-11-17 13:39:09 GMT 53.144165 -1.332563 7,700 245 182 1024
2018-11-17 13:39:06 GMT 53.144989 -1.329503 7,500 246 180 1024
2018-11-17 13:39:03 GMT 53.145943 -1.326195 7,500 246 178 1280
2018-11-17 13:39:00 GMT 53.147278 -1.321498 7,600 245 175 1408
2018-11-17 13:38:57 GMT 53.148598 -1.317067 7,500 244 172 1088
2018-11-17 13:38:54 GMT 53.149483 -1.314240 7,200 243 171 1152
2018-11-17 13:38:51 GMT 53.151031 -1.309335 7,300 242 167 1664
2018-11-17 13:38:48 GMT 53.151669 -1.307292 7,300 242 167 1664
2018-11-17 13:38:45 GMT 53.152817 -1.303842 7,200 241 164 1152
2018-11-17 13:38:42 GMT 53.153824 -1.300703 7,100 241 160 1408
2018-11-17 13:38:39 GMT 53.155151 -1.296779 7,100 242 158 1728
2018-11-17 13:38:36 GMT 53.156250 -1.293562 6,900 241 156 1408
2018-11-17 13:38:30 GMT 53.158310 -1.287205 6,800 243 153 1856
2018-11-17 13:38:27 GMT 53.159073 -1.284916 6,800 243 153 2112
2018-11-17 13:38:24 GMT 53.160095 -1.281712 6,600 242 155 1920
2018-11-17 13:38:20 GMT 53.161331 -1.277867 6,500 244 154 1920
2018-11-17 13:38:17 GMT 53.162521 -1.274022 6,400 243 155 2432
2018-11-17 13:38:14 GMT 53.163254 -1.271667 6,200 243 159 2176
2018-11-17 13:38:11 GMT 53.165680 -1.263663 6,000 244 161 2560
2018-11-17 13:38:07 GMT 53.165680 -1.263663 6,000 244 161 2176
2018-11-17 13:38:04 GMT 53.166939 -1.259389 5,900 245 165 2688
2018-11-17 13:38:01 GMT 53.167870 -1.256157 5,600 245 167 2432
2018-11-17 13:37:58 GMT 53.168930 -1.252363 5,600 247 170 2496
2018-11-17 13:37:55 GMT 53.169617 -1.249930 5,500 246 170 2624
2018-11-17 13:37:52 GMT 53.171036 -1.244594 5,400 248 177 3008
2018-11-17 13:37:49 GMT 53.171722 -1.242161 5,300 246 176 3072
2018-11-17 13:37:46 GMT 53.172710 -1.238305 5,200 248 179 2944
2018-11-17 13:37:43 GMT 53.174606 -1.230626 4,900 248 184 2240
2018-11-17 13:37:40 GMT 53.174606 -1.230626 4,800 248 186 2304
2018-11-17 13:37:37 GMT 53.175613 -1.226624 4,800 249 187 1920
2018-11-17 13:37:34 GMT 53.176575 -1.222857 4,700 248 188 1408
2018-11-17 13:37:31 GMT 53.177628 -1.218462 4,600 249 187 1088
2018-11-17 13:37:28 GMT 53.178764 -1.213828 4,600 249 189 960
2018-11-17 13:37:25 GMT 53.179695 -1.210031 4,600 249 192 -320
2018-11-17 13:37:21 GMT 53.180950 -1.204942 4,600 249 192 -320
2018-11-17 13:37:17 GMT 53.182209 -1.199691 4,600 249 192 192
2018-11-17 13:37:14 GMT 53.183186 -1.195813 4,600 249 195 128
2018-11-17 13:37:11 GMT 53.184219 -1.191546 4,600 247 195 -320
2018-11-17 13:37:08 GMT 53.185364 -1.187073 4,600 248 195 -512
2018-11-17 13:37:05 GMT 53.186398 -1.182888 4,600 247 194 0
2018-11-17 13:37:02 GMT 53.187840 -1.177314 4,600 248 197 -128
2018-11-17 13:36:59 GMT 53.188477 -1.174752 4,600 247 196 -576
2018-11-17 13:36:56 GMT 53.189575 -1.170515 4,600 247 196 -512
2018-11-17 13:36:53 GMT 53.190681 -1.166328 4,600 247 196 384
2018-11-17 13:36:50 GMT 53.191704 -1.162370 4,600 247 197 0
2018-11-17 13:36:46 GMT 53.193241 -1.156796 4,600 246 196 -64
2018-11-17 13:36:43 GMT 53.194519 -1.152073 4,600 246 196 0
2018-11-17 13:36:39 GMT 53.196075 -1.146580 4,600 245 191 256
2018-11-17 13:36:36 GMT 53.198082 -1.139589 4,600 245 191 256
2018-11-17 13:36:33 GMT 53.198082 -1.139589 4,600 245 186 -128
2018-11-17 13:36:30 GMT 53.199051 -1.136143 4,500 244 181 512
2018-11-17 13:36:27 GMT 53.200733 -1.130380 4,500 245 180 896
2018-11-17 13:36:24 GMT 53.201935 -1.126099 4,500 244 174 448
2018-11-17 13:36:21 GMT 53.203445 -1.120841 4,400 245 170 1920
2018-11-17 13:36:14 GMT 53.204910 -1.115740 4,300 246 170 2048
2018-11-17 13:36:11 GMT 53.205765 -1.112608 4,200 245 172 1728
2018-11-17 13:36:07 GMT 53.207764 -1.105338 4,000 246 171 2176
2018-11-17 13:36:04 GMT 53.208115 -1.104126 3,900 246 171 2176
2018-11-17 13:36:01 GMT 53.209114 -1.100491 3,900 247 172 2048
2018-11-17 13:35:58 GMT 53.210175 -1.096514 3,700 247 172 2112
2018-11-17 13:35:55 GMT 53.211395 -1.091847 3,600 247 175 2176
2018-11-17 13:35:52 GMT 53.212280 -1.088588 3,500 247 175 2112
2018-11-17 13:35:48 GMT 53.213818 -1.082880 3,400 246 176 1664
2018-11-17 13:35:44 GMT 53.214844 -1.079093 3,100 246 176 2368
2018-11-17 13:35:41 GMT 53.215897 -1.075091 3,100 248 177 1984
2018-11-17 13:35:37 GMT 53.218517 -1.064866 2,900 247 178 1792
2018-11-17 13:35:33 GMT 53.218517 -1.064866 2,900 248 177 1920
2018-11-17 13:35:30 GMT 53.219311 -1.061796 2,800 248 178 1984
2018-11-17 13:35:27 GMT 53.220333 -1.057676 2,600 249 176 1856
2018-11-17 13:35:23 GMT 53.221573 -1.052255 2,600 249 177 1472
2018-11-17 13:35:20 GMT 53.222626 -1.047625 2,500 250 177 2368
2018-11-17 13:35:17 GMT 53.223267 -1.044721 2,300 251 179 1920
2018-11-17 13:35:13 GMT 53.224617 -1.038693 2,300 251 178 1344
2018-11-17 13:35:09 GMT 53.225464 -1.034755 2,200 250 177 1856
2018-11-17 13:35:06 GMT 53.226288 -1.031145 2,100 250 178 2048
2018-11-17 13:35:02 GMT 53.227615 -1.025495 1,900 249 179 1984
2018-11-17 13:34:59 GMT 53.228851 -1.020551 1,800 247 178 2304
2018-11-17 13:34:52 GMT 53.231323 -1.011370 1,500 245 181 1600
2018-11-17 13:34:48 GMT 53.232113 -1.008561 1,500 245 180 1536
2018-11-17 13:34:44 GMT 53.233704 -1.003287 1,400 244 178 1920
2018-11-17 13:34:41 GMT 53.235077 -0.998814 1,200 243 178 1792
2018-11-17 13:34:38 GMT 53.236267 -0.995204 1,100 241 176 1664
2018-11-17 13:34:34 GMT 53.237465 -0.991597 1,100 241 176 1856
2018-11-17 13:34:31 GMT 53.239140 -0.986831 1,000 239 175 1280
2018-11-17 13:34:27 GMT 53.240353 -0.983599 800 231 177 512
2018-11-17 13:34:24 GMT 53.242218 -0.979431 800 231 177 576
2018-11-17 13:34:20 GMT 53.244370 -0.975194 800 229 178 320
2018-11-17 13:34:17 GMT 53.246494 -0.971725 800 220 176 384
2018-11-17 13:34:13 GMT 53.248398 -0.969073 800 220 176 384
2018-11-17 13:34:10 GMT 53.253155 -0.963727 800 213 174 64
2018-11-17 13:34:02 GMT 53.256317 -0.960362 800 212 174 128
2018-11-17 13:33:58 GMT 53.258274 -0.958396 800 212 174 320
2018-11-17 13:33:54 GMT 53.261066 -0.955487 800 212 174 0
2018-11-17 13:33:51 GMT 53.263687 -0.952907 800 212 172 -64
2018-11-17 13:33:48 GMT 53.265488 -0.951125 800 210 167 -64
2018-11-17 13:33:45 GMT 53.267399 -0.949267 800 210 164 -64
2018-11-17 13:33:41 GMT 53.270370 -0.946315 800 211 151 -256
2018-11-17 13:33:35 GMT 53.274033 -0.942862 800 207 134 1408
2018-11-17 13:33:31 GMT 53.276276 -0.941057 700 206 131 2176
2018-11-17 13:33:28 GMT 53.277832 -0.939880 600 203 131 1792
2018-11-17 13:33:22 GMT 53.281178 -0.938362 400 94 96 832
2018-11-17 13:33:17 GMT 53.283508 -0.939017 300 155 107 1280

Making use of Plane Finder data

You are free to use the raw flight data, aircraft information and images provided in this report for your own purposes provided the data is correctly attributed to Plane Finder. We ask that you please credit Plane Finder and link to planefinder.net in close proximity to the content.

Optionally one of the following logos (no smaller then 150x24px) can be used and must link to planefinder.net

Embedding the Plane Finder map

You are welcome to embed the Plane Finder playback map on your website to offer visitors a more interactive experience. We suggest using the following HTML code:

<iframe src="//planefinder.net/data/report/N14EF-N14EF-7700-squawk-2018-11-17/map" width="800" height="600" seamless="seamless"></iframe>

Where our data comes from

Plane Finder has a global network of data feeds and antenna radars that receive data broadcast directly from aircraft. The primary technologies used are ADS-B and MLAT. We also show feeds from the FAA and a FLARM glider feed.

Click here to find out more about the Plane Finder network.

How we collect our data